createdAt,value
2023-03-23T15:58:30.384Z,15.85
2023-03-23T16:00:59.197Z,15.90
2023-03-23T16:03:28.633Z,15.76
2023-03-23T16:05:57.487Z,15.20
2023-03-23T16:08:25.394Z,15.30
2023-03-23T16:10:55.749Z,15.44
2023-03-23T16:13:27.958Z,15.58
2023-03-23T16:15:57.228Z,15.74
2023-03-23T16:18:25.043Z,15.73
2023-03-23T16:20:52.862Z,15.51
2023-03-23T16:23:21.225Z,15.48
2023-03-23T16:25:49.017Z,15.53
2023-03-23T16:28:17.334Z,15.75
2023-03-23T16:30:46.291Z,15.75
2023-03-23T16:33:16.106Z,15.64
2023-03-23T16:35:44.916Z,15.44
2023-03-23T16:38:14.069Z,15.36
2023-03-23T16:40:42.612Z,15.52
2023-03-23T16:43:10.804Z,15.42
2023-03-23T16:45:40.994Z,15.33
2023-03-23T16:48:10.725Z,15.28
2023-03-23T16:50:40.899Z,15.28
2023-03-23T16:53:11.970Z,15.24
2023-03-23T16:55:40.699Z,15.27
2023-03-23T16:58:16.976Z,15.26
2023-03-23T17:00:46.743Z,15.21
2023-03-23T17:03:21.739Z,15.21
2023-03-23T17:05:51.612Z,15.07
2023-03-23T17:08:19.952Z,15.04
2023-03-23T17:10:47.876Z,15.01
2023-03-23T17:13:15.797Z,15.04
2023-03-23T17:15:46.553Z,14.93
2023-03-23T17:18:16.090Z,14.86
2023-03-23T17:20:44.514Z,14.83
2023-03-23T17:23:13.748Z,14.92
2023-03-23T17:25:41.729Z,14.80
2023-03-23T17:28:09.683Z,14.86
2023-03-23T17:30:40.577Z,14.88
2023-03-23T17:33:08.921Z,14.76
2023-03-23T17:35:37.591Z,14.70
2023-03-23T17:38:05.741Z,14.63
2023-03-23T17:40:35.266Z,14.64
2023-03-23T17:43:02.916Z,14.45
2023-03-23T17:45:30.702Z,14.44
2023-03-23T17:47:58.681Z,14.49
2023-03-23T17:50:26.967Z,14.45
2023-03-23T17:52:57.023Z,14.47
2023-03-23T17:55:25.442Z,14.42
2023-03-23T17:57:54.754Z,14.31
2023-03-23T18:00:23.492Z,14.27
2023-03-23T18:02:51.386Z,14.32
2023-03-23T18:05:19.559Z,14.41
2023-03-23T18:07:47.531Z,14.43
2023-03-23T18:10:15.478Z,14.39
2023-03-23T18:12:43.823Z,14.39
2023-03-23T18:15:13.756Z,14.42
2023-03-23T18:17:42.473Z,14.48
2023-03-23T18:20:10.731Z,14.63
2023-03-23T18:22:39.093Z,14.63
2023-03-23T18:25:07.988Z,14.79
2023-03-23T18:27:36.144Z,14.89
2023-03-23T18:30:04.329Z,14.70
2023-03-23T18:32:35.906Z,14.58
2023-03-23T18:35:04.975Z,14.52
2023-03-23T18:37:33.225Z,14.53
2023-03-23T18:40:01.418Z,14.59
2023-03-23T18:42:29.378Z,14.68
2023-03-23T18:44:59.853Z,14.71
2023-03-23T18:47:28.753Z,14.79
2023-03-23T18:50:00.060Z,14.89
2023-03-23T18:52:31.048Z,15.02
2023-03-23T18:54:59.074Z,15.09
2023-03-23T18:57:27.547Z,14.96
2023-03-23T18:59:56.340Z,14.82
2023-03-23T19:02:24.047Z,14.75
2023-03-23T19:04:52.522Z,14.72
2023-03-23T19:07:22.152Z,14.76
2023-03-23T19:09:50.468Z,14.82
2023-03-23T19:12:20.931Z,14.90
2023-03-23T19:14:48.597Z,14.92
2023-03-23T19:17:17.272Z,14.89
2023-03-23T19:19:44.932Z,14.97
2023-03-23T19:22:12.940Z,14.93
2023-03-23T19:24:41.973Z,15.08
2023-03-23T19:27:09.852Z,15.19
2023-03-23T19:29:38.177Z,15.03
2023-03-23T19:32:06.466Z,15.04
2023-03-23T19:34:35.769Z,15.13
2023-03-23T19:37:06.208Z,15.35
2023-03-23T19:39:41.708Z,15.32
2023-03-23T19:42:16.953Z,15.19
2023-03-23T19:44:46.229Z,15.09
2023-03-23T19:47:14.465Z,15.05
2023-03-23T19:49:42.500Z,15.00
2023-03-23T19:52:13.477Z,14.99
2023-03-23T19:54:42.778Z,15.08
2023-03-23T19:57:12.465Z,15.19
2023-03-23T19:59:40.580Z,15.19
2023-03-23T20:02:11.877Z,15.29
2023-03-23T20:04:40.862Z,15.28
2023-03-23T20:07:08.629Z,15.25
2023-03-23T20:09:39.675Z,15.22
2023-03-23T20:12:09.668Z,15.29
2023-03-23T20:14:45.080Z,15.44
2023-03-23T20:17:14.532Z,15.51
2023-03-23T20:19:43.047Z,15.46
2023-03-23T20:22:11.350Z,15.59
2023-03-23T20:24:39.339Z,15.59
2023-03-23T20:27:08.015Z,15.63
2023-03-23T20:29:36.037Z,15.59
2023-03-23T20:32:05.571Z,15.53
2023-03-23T20:34:33.409Z,15.15
2023-03-23T20:37:02.928Z,14.92
2023-03-23T20:39:32.611Z,14.83
2023-03-23T20:42:03.022Z,14.83
2023-03-23T20:44:37.169Z,14.76
2023-03-23T20:47:06.868Z,14.70
2023-03-23T20:49:37.730Z,14.87
2023-03-23T20:52:12.001Z,14.89
2023-03-23T20:54:40.887Z,14.60
2023-03-23T20:57:09.641Z,14.57
2023-03-23T20:59:37.722Z,14.63
2023-03-23T21:02:09.733Z,14.59
2023-03-23T21:04:40.077Z,14.53
2023-03-23T21:07:08.681Z,14.39
2023-03-23T21:09:36.752Z,14.34
2023-03-23T21:12:06.331Z,14.42
2023-03-23T21:14:34.160Z,14.58
2023-03-23T21:17:02.583Z,14.62
2023-03-23T21:19:32.521Z,14.63
2023-03-23T21:22:00.452Z,14.57
2023-03-23T21:24:29.334Z,14.54
2023-03-23T21:26:58.107Z,14.58
2023-03-23T21:29:28.254Z,14.59
2023-03-23T21:34:28.315Z,14.53
2023-03-23T21:36:57.454Z,14.55
2023-03-23T21:39:27.542Z,14.43
2023-03-23T21:41:55.691Z,14.54
2023-03-23T21:44:28.350Z,14.70
2023-03-23T21:46:56.960Z,14.60
2023-03-23T21:49:24.852Z,14.61
2023-03-23T21:51:52.610Z,14.73
2023-03-23T21:54:22.250Z,14.68
2023-03-23T21:56:50.454Z,14.75
2023-03-23T21:59:18.596Z,14.79
2023-03-23T22:01:48.219Z,14.74
2023-03-23T22:04:17.286Z,14.76
2023-03-23T22:06:45.348Z,14.85
2023-03-23T22:09:14.052Z,14.79
2023-03-23T22:11:44.508Z,14.80
2023-03-23T22:14:13.770Z,14.79
2023-03-23T22:16:42.028Z,14.82
2023-03-23T22:19:12.836Z,14.84
2023-03-23T22:21:45.237Z,15.00
2023-03-23T22:24:13.973Z,14.99
2023-03-23T22:26:44.888Z,15.04
2023-03-23T22:29:13.389Z,15.02
2023-03-23T22:31:41.705Z,15.08
2023-03-23T22:34:10.105Z,15.07
2023-03-23T22:36:39.519Z,15.10
2023-03-23T22:39:08.363Z,15.09
2023-03-23T22:41:38.135Z,14.92
2023-03-23T22:44:12.210Z,14.77
2023-03-23T22:46:40.445Z,14.50
2023-03-23T22:49:08.761Z,14.36
2023-03-23T22:51:37.333Z,14.33
2023-03-23T22:54:06.117Z,14.35
2023-03-23T22:56:36.954Z,14.44
2023-03-23T22:59:05.675Z,14.61
2023-03-23T23:01:36.328Z,14.78
2023-03-23T23:04:05.459Z,14.87
2023-03-23T23:06:33.688Z,14.79
2023-03-23T23:09:01.714Z,14.57
2023-03-23T23:11:31.504Z,14.27
2023-03-23T23:13:59.482Z,13.94
2023-03-23T23:16:27.931Z,13.81
2023-03-23T23:19:04.866Z,13.83
2023-03-23T23:21:32.714Z,13.77
2023-03-23T23:24:00.765Z,13.58
2023-03-23T23:26:29.086Z,13.33
2023-03-23T23:28:56.986Z,13.22
2023-03-23T23:31:27.525Z,13.21
2023-03-23T23:33:57.877Z,13.37
2023-03-23T23:36:28.331Z,13.42
2023-03-23T23:38:56.733Z,13.40
2023-03-23T23:41:25.329Z,13.38
2023-03-23T23:43:55.789Z,13.34
2023-03-23T23:46:26.615Z,13.28
2023-03-23T23:48:54.965Z,13.30
2023-03-23T23:51:27.554Z,13.12
2023-03-23T23:53:59.147Z,13.21
2023-03-23T23:56:30.491Z,13.24
2023-03-23T23:58:58.501Z,13.25
